createdAt,value
2019-03-29T00:00:42.968Z,1015.81
2019-03-29T00:01:42.933Z,1015.83
2019-03-29T00:02:43.093Z,1015.77
2019-03-29T00:03:42.910Z,1015.79
2019-03-29T00:04:42.921Z,1015.76
2019-03-29T00:05:42.889Z,1015.77
2019-03-29T00:06:42.875Z,1015.74
2019-03-29T00:07:42.866Z,1015.77
2019-03-29T00:08:42.864Z,1015.72
2019-03-29T00:09:42.874Z,1015.76
2019-03-29T00:10:42.831Z,1015.74
2019-03-29T00:11:42.821Z,1015.76
2019-03-29T00:12:42.809Z,1015.74
2019-03-29T00:13:42.797Z,1015.74
2019-03-29T00:14:42.809Z,1015.78
2019-03-29T00:15:42.775Z,1015.77
2019-03-29T00:16:42.763Z,1015.78
2019-03-29T00:17:44.002Z,1015.71
2019-03-29T00:18:42.741Z,1015.77
2019-03-29T00:19:42.751Z,1015.75
2019-03-29T00:20:42.718Z,1015.75
2019-03-29T00:21:42.706Z,1015.80
2019-03-29T00:22:42.695Z,1015.81
2019-03-29T00:23:42.684Z,1015.83
2019-03-29T00:24:42.694Z,1015.79
2019-03-29T00:25:42.660Z,1015.78
2019-03-29T00:26:42.650Z,1015.82
2019-03-29T00:27:42.638Z,1015.81
2019-03-29T00:28:42.627Z,1015.77
2019-03-29T00:29:42.638Z,1015.78
2019-03-29T00:30:42.627Z,1015.76
2019-03-29T00:31:42.597Z,1015.71
2019-03-29T00:32:42.582Z,1015.74
2019-03-29T00:33:42.573Z,1015.76
2019-03-29T00:34:42.560Z,1015.74
2019-03-29T00:35:42.569Z,1015.69
2019-03-29T00:36:42.537Z,1015.70
2019-03-29T00:37:52.767Z,1015.66
2019-03-29T00:38:43.513Z,1015.68
2019-03-29T00:39:42.504Z,1015.70
2019-03-29T00:40:42.513Z,1015.69
2019-03-29T00:41:42.481Z,1015.72
2019-03-29T00:42:43.095Z,1015.71
2019-03-29T00:43:42.458Z,1015.73
2019-03-29T00:44:42.447Z,1015.67
2019-03-29T00:45:42.457Z,1015.71
2019-03-29T00:46:42.429Z,1015.73
2019-03-29T00:47:42.414Z,1015.64
2019-03-29T00:48:42.402Z,1015.67
2019-03-29T00:49:42.390Z,1015.62
2019-03-29T00:50:42.401Z,1015.67
2019-03-29T00:51:42.368Z,1015.63
2019-03-29T00:52:43.001Z,1015.64
2019-03-29T00:53:42.347Z,1015.60
2019-03-29T00:54:42.335Z,1015.65
2019-03-29T00:55:42.345Z,1015.64
2019-03-29T00:56:42.319Z,1015.63
2019-03-29T00:57:42.301Z,1015.61
2019-03-29T00:58:42.290Z,1015.63
2019-03-29T00:59:42.294Z,1015.59
2019-03-29T01:00:42.293Z,1015.59
2019-03-29T01:01:42.258Z,1015.58
2019-03-29T01:02:42.246Z,1015.54
2019-03-29T01:03:42.238Z,1015.53
2019-03-29T01:04:42.224Z,1015.52
2019-03-29T01:05:42.233Z,1015.49
2019-03-29T01:06:42.201Z,1015.48
2019-03-29T01:07:42.190Z,1015.45
2019-03-29T01:08:42.193Z,1015.46
2019-03-29T01:09:42.167Z,1015.46
2019-03-29T01:10:42.178Z,1015.44
2019-03-29T01:11:42.171Z,1015.44
2019-03-29T01:12:42.134Z,1015.40
2019-03-29T01:13:42.123Z,1015.38
2019-03-29T01:14:42.874Z,1015.40
2019-03-29T01:15:42.103Z,1015.43
2019-03-29T01:16:42.111Z,1015.36
2019-03-29T01:17:42.077Z,1015.38
2019-03-29T01:18:42.066Z,1015.39
2019-03-29T01:19:42.057Z,1015.38
2019-03-29T01:20:42.045Z,1015.42
2019-03-29T01:21:42.055Z,1015.41
2019-03-29T01:22:42.021Z,1015.42
2019-03-29T01:23:42.010Z,1015.40
2019-03-29T01:24:42.127Z,1015.42
2019-03-29T01:25:41.991Z,1015.37
2019-03-29T01:26:41.999Z,1015.39
2019-03-29T01:27:41.966Z,1015.39
2019-03-29T01:28:41.955Z,1015.40
2019-03-29T01:29:41.943Z,1015.45
2019-03-29T01:30:41.935Z,1015.42
2019-03-29T01:31:41.946Z,1015.36
2019-03-29T01:32:41.910Z,1015.37
2019-03-29T01:33:41.901Z,1015.41
2019-03-29T01:34:43.041Z,1015.36
2019-03-29T01:35:41.876Z,1015.35
2019-03-29T01:36:41.890Z,1015.31
2019-03-29T01:37:41.854Z,1015.36
2019-03-29T01:38:41.844Z,1015.30
2019-03-29T01:39:42.884Z,1015.31
2019-03-29T01:40:41.821Z,1015.32
2019-03-29T01:41:41.831Z,1015.33
2019-03-29T01:42:41.798Z,1015.30
2019-03-29T01:43:41.787Z,1015.33
2019-03-29T01:44:41.775Z,1015.32
2019-03-29T01:45:41.764Z,1015.26
2019-03-29T01:46:41.774Z,1015.25
2019-03-29T01:47:41.744Z,1015.26
2019-03-29T01:48:41.731Z,1015.20
2019-03-29T01:49:42.004Z,1015.22
2019-03-29T01:50:41.709Z,1015.21
2019-03-29T01:51:41.718Z,1015.22
2019-03-29T01:52:41.687Z,1015.19
2019-03-29T01:53:41.675Z,1015.16
2019-03-29T01:54:41.664Z,1015.17
2019-03-29T01:55:41.653Z,1015.17
2019-03-29T01:56:41.663Z,1015.17
2019-03-29T01:57:41.630Z,1015.18
2019-03-29T01:58:41.620Z,1015.07
2019-03-29T01:59:42.317Z,1015.09
2019-03-29T02:00:41.596Z,1015.11
2019-03-29T02:01:41.607Z,1015.11
2019-03-29T02:02:41.575Z,1015.13
2019-03-29T02:03:41.565Z,1015.05
2019-03-29T02:04:41.552Z,1015.04
2019-03-29T02:05:41.542Z,1015.00
2019-03-29T02:06:41.551Z,1015.06
2019-03-29T02:07:41.539Z,1015.06
2019-03-29T02:08:41.507Z,1015.02
2019-03-29T02:09:41.496Z,1014.99
2019-03-29T02:10:41.485Z,1014.97
2019-03-29T02:11:41.474Z,1014.94
2019-03-29T02:12:41.484Z,1014.97
2019-03-29T02:13:41.453Z,1014.95
2019-03-29T02:14:41.442Z,1014.91
2019-03-29T02:15:41.430Z,1014.93
2019-03-29T02:16:41.419Z,1014.91
2019-03-29T02:17:41.429Z,1014.93
2019-03-29T02:18:41.396Z,1014.91
2019-03-29T02:19:41.387Z,1014.89
2019-03-29T02:20:41.374Z,1014.95
2019-03-29T02:21:41.363Z,1014.94
2019-03-29T02:22:41.374Z,1014.91
2019-03-29T02:23:41.339Z,1014.92
2019-03-29T02:24:41.330Z,1014.86
2019-03-29T02:25:41.335Z,1014.90
2019-03-29T02:26:41.312Z,1014.83
2019-03-29T02:27:41.331Z,1014.79
2019-03-29T02:28:41.286Z,1014.80
2019-03-29T02:29:41.274Z,1014.77
2019-03-29T02:30:41.290Z,1014.76
2019-03-29T02:31:42.273Z,1014.75
2019-03-29T02:32:41.263Z,1014.73
2019-03-29T02:33:41.235Z,1014.74
2019-03-29T02:34:41.219Z,1014.78
2019-03-29T02:35:41.208Z,1014.71
2019-03-29T02:36:41.195Z,1014.71
2019-03-29T02:37:41.206Z,1014.70
2019-03-29T02:38:55.159Z,1014.73
2019-03-29T02:39:42.162Z,1014.72
2019-03-29T02:40:41.153Z,1014.70
2019-03-29T02:41:41.143Z,1014.70
2019-03-29T02:42:42.786Z,1014.70
2019-03-29T02:43:41.121Z,1014.65
2019-03-29T02:44:41.107Z,1014.64
2019-03-29T02:45:41.100Z,1014.63
2019-03-29T02:46:41.085Z,1014.63
2019-03-29T02:47:41.098Z,1014.61
2019-03-29T02:48:41.062Z,1014.64
2019-03-29T02:49:41.059Z,1014.62
2019-03-29T02:50:41.062Z,1014.65
2019-03-29T02:51:41.028Z,1014.63
2019-03-29T02:52:41.042Z,1014.65
2019-03-29T02:53:41.007Z,1014.63
2019-03-29T02:54:40.994Z,1014.61
2019-03-29T02:55:40.987Z,1014.60
2019-03-29T02:56:40.974Z,1014.60
2019-03-29T02:57:40.984Z,1014.59
2019-03-29T02:58:40.950Z,1014.57
2019-03-29T02:59:40.938Z,1014.57
2019-03-29T03:00:40.941Z,1014.57
2019-03-29T03:01:40.918Z,1014.53
2019-03-29T03:02:40.928Z,1014.56
2019-03-29T03:03:40.925Z,1014.58
2019-03-29T03:04:40.885Z,1014.53
2019-03-29T03:05:40.873Z,1014.54
2019-03-29T03:06:40.862Z,1014.57
2019-03-29T03:07:40.861Z,1014.49
2019-03-29T03:08:40.860Z,1014.51
2019-03-29T03:09:40.828Z,1014.50
2019-03-29T03:10:40.816Z,1014.52
2019-03-29T03:11:40.807Z,1014.50
2019-03-29T03:12:40.792Z,1014.53
2019-03-29T03:13:40.803Z,1014.48
2019-03-29T03:14:40.770Z,1014.49
2019-03-29T03:15:40.777Z,1014.45
2019-03-29T03:16:40.815Z,1014.45
2019-03-29T03:17:40.886Z,1014.45
2019-03-29T03:18:40.755Z,1014.43
2019-03-29T03:19:40.715Z,1014.44
2019-03-29T03:20:40.703Z,1014.40
2019-03-29T03:21:40.697Z,1014.43
2019-03-29T03:22:40.687Z,1014.45
2019-03-29T03:23:40.693Z,1014.48
2019-03-29T03:24:40.658Z,1014.48
2019-03-29T03:25:40.653Z,1014.48
2019-03-29T03:26:40.640Z,1014.50
2019-03-29T03:27:40.626Z,1014.50
2019-03-29T03:28:40.636Z,1014.44
2019-03-29T03:29:40.604Z,1014.44
2019-03-29T03:30:40.596Z,1014.46
2019-03-29T03:31:40.587Z,1014.48
2019-03-29T03:32:40.588Z,1014.43
2019-03-29T03:33:40.581Z,1014.45
2019-03-29T03:34:40.568Z,1014.47
2019-03-29T03:35:40.537Z,1014.48
2019-03-29T03:36:40.526Z,1014.45
2019-03-29T03:37:40.516Z,1014.42
2019-03-29T03:38:40.510Z,1014.44
2019-03-29T03:39:40.513Z,1014.43
2019-03-29T03:40:40.479Z,1014.46
2019-03-29T03:41:40.469Z,1014.43
2019-03-29T03:42:40.457Z,1014.47
2019-03-29T03:43:40.446Z,1014.45
2019-03-29T03:44:40.460Z,1014.45
2019-03-29T03:45:40.427Z,1014.44
2019-03-29T03:46:40.417Z,1014.41
2019-03-29T03:47:40.449Z,1014.39
2019-03-29T03:48:40.390Z,1014.42
2019-03-29T03:49:40.399Z,1014.40
2019-03-29T03:50:40.374Z,1014.43
2019-03-29T03:51:40.355Z,1014.38
2019-03-29T03:52:40.345Z,1014.39
2019-03-29T03:53:40.335Z,1014.36
2019-03-29T03:54:40.343Z,1014.39
2019-03-29T03:55:40.317Z,1014.33
2019-03-29T03:56:40.300Z,1014.35
2019-03-29T03:57:40.288Z,1014.34
2019-03-29T03:58:40.279Z,1014.37
2019-03-29T03:59:40.287Z,1014.32
2019-03-29T04:00:40.253Z,1014.37
2019-03-29T04:01:40.243Z,1014.38
2019-03-29T04:02:40.231Z,1014.33
2019-03-29T04:03:40.227Z,1014.32
2019-03-29T04:04:40.237Z,1014.34
2019-03-29T04:05:40.202Z,1014.34
2019-03-29T04:06:40.188Z,1014.34
2019-03-29T04:07:40.177Z,1014.30
2019-03-29T04:08:40.169Z,1014.36
2019-03-29T04:09:49.583Z,1014.30
2019-03-29T04:10:42.335Z,1014.36
2019-03-29T04:11:40.133Z,1014.31
2019-03-29T04:12:40.121Z,1014.34
2019-03-29T04:13:40.128Z,1014.33
2019-03-29T04:14:40.119Z,1014.34
2019-03-29T04:15:40.088Z,1014.33
2019-03-29T04:16:40.076Z,1014.32
2019-03-29T04:17:40.065Z,1014.35
2019-03-29T04:18:40.053Z,1014.37
2019-03-29T04:19:40.080Z,1014.36
2019-03-29T04:20:40.056Z,1014.36
2019-03-29T04:21:40.019Z,1014.35
2019-03-29T04:22:40.009Z,1014.35
2019-03-29T04:23:39.997Z,1014.34
2019-03-29T04:24:39.988Z,1014.37
2019-03-29T04:25:39.996Z,1014.36
2019-03-29T04:26:39.968Z,1014.35
2019-03-29T04:27:39.953Z,1014.33
2019-03-29T04:28:39.950Z,1014.34
2019-03-29T04:29:39.929Z,1014.33
2019-03-29T04:30:39.941Z,1014.35
2019-03-29T04:31:39.908Z,1014.32
2019-03-29T04:32:39.897Z,1014.32
2019-03-29T04:33:39.886Z,1014.37
2019-03-29T04:34:39.874Z,1014.32
2019-03-29T04:35:39.885Z,1014.32
2019-03-29T04:36:39.858Z,1014.29
2019-03-29T04:37:39.841Z,1014.31
2019-03-29T04:38:39.829Z,1014.33
2019-03-29T04:39:39.820Z,1014.35
2019-03-29T04:40:39.832Z,1014.31
2019-03-29T04:41:39.796Z,1014.35
2019-03-29T04:42:39.790Z,1014.36
2019-03-29T04:43:39.773Z,1014.31
2019-03-29T04:44:39.762Z,1014.29
2019-03-29T04:45:39.774Z,1014.30
2019-03-29T04:46:39.740Z,1014.33
2019-03-29T04:47:39.729Z,1014.30
2019-03-29T04:48:39.722Z,1014.28
2019-03-29T04:49:39.707Z,1014.29
2019-03-29T04:50:39.717Z,1014.28
2019-03-29T04:51:39.686Z,1014.29
2019-03-29T04:52:39.673Z,1014.33
2019-03-29T04:53:39.662Z,1014.29
2019-03-29T04:54:39.651Z,1014.32
2019-03-29T04:55:39.663Z,1014.32
2019-03-29T04:56:39.631Z,1014.27
2019-03-29T04:57:39.617Z,1014.29
2019-03-29T04:58:39.606Z,1014.34
2019-03-29T04:59:39.594Z,1014.33
2019-03-29T05:00:39.604Z,1014.36
2019-03-29T05:01:39.572Z,1014.35
2019-03-29T05:02:39.561Z,1014.33
2019-03-29T05:03:39.550Z,1014.33
2019-03-29T05:04:39.538Z,1014.30
2019-03-29T05:05:39.549Z,1014.33
2019-03-29T05:06:39.516Z,1014.34
2019-03-29T05:07:39.505Z,1014.33
2019-03-29T05:08:39.495Z,1014.32
2019-03-29T05:09:39.486Z,1014.31
2019-03-29T05:10:39.494Z,1014.32
2019-03-29T05:11:39.481Z,1014.32
2019-03-29T05:12:39.453Z,1014.34
2019-03-29T05:13:39.437Z,1014.35
2019-03-29T05:14:39.427Z,1014.35
2019-03-29T05:15:39.418Z,1014.37
2019-03-29T05:16:39.426Z,1014.33
2019-03-29T05:17:39.393Z,1014.36
2019-03-29T05:18:39.383Z,1014.32
2019-03-29T05:19:39.370Z,1014.33
2019-03-29T05:20:39.359Z,1014.35
2019-03-29T05:21:39.371Z,1014.35
2019-03-29T05:22:39.339Z,1014.32
2019-03-29T05:23:39.326Z,1014.33
2019-03-29T05:24:39.315Z,1014.31
2019-03-29T05:25:39.305Z,1014.30
2019-03-29T05:26:39.315Z,1014.26
2019-03-29T05:27:39.282Z,1014.27
2019-03-29T05:28:39.270Z,1014.27
2019-03-29T05:29:39.259Z,1014.27
2019-03-29T05:30:39.269Z,1014.29
2019-03-29T05:31:39.236Z,1014.26
2019-03-29T05:32:39.245Z,1014.26
2019-03-29T05:33:39.214Z,1014.29
2019-03-29T05:34:39.204Z,1014.27
2019-03-29T05:35:39.196Z,1014.27
2019-03-29T05:36:39.180Z,1014.28
2019-03-29T05:37:39.190Z,1014.26
2019-03-29T05:38:39.164Z,1014.25
2019-03-29T05:39:39.149Z,1014.24
2019-03-29T05:40:39.147Z,1014.26
2019-03-29T05:41:39.130Z,1014.29
2019-03-29T05:42:39.134Z,1014.29
2019-03-29T05:43:39.103Z,1014.24
2019-03-29T05:44:40.797Z,1014.26
2019-03-29T05:45:39.082Z,1014.24
2019-03-29T05:46:39.069Z,1014.24
2019-03-29T05:47:39.086Z,1014.24
2019-03-29T05:48:39.048Z,1014.21
2019-03-29T05:49:39.035Z,1014.21
2019-03-29T05:50:39.024Z,1014.17
2019-03-29T05:51:39.013Z,1014.22
2019-03-29T05:52:39.022Z,1014.18
2019-03-29T05:53:38.991Z,1014.18
2019-03-29T05:54:38.982Z,1014.22
2019-03-29T05:55:38.969Z,1014.26
2019-03-29T05:56:38.957Z,1014.25
2019-03-29T05:57:38.969Z,1014.24
2019-03-29T05:58:38.937Z,1014.23
2019-03-29T05:59:38.925Z,1014.28
2019-03-29T06:00:38.913Z,1014.24
2019-03-29T06:01:38.902Z,1014.29
2019-03-29T06:02:38.912Z,1014.26
2019-03-29T06:03:38.882Z,1014.27
2019-03-29T06:04:38.867Z,1014.32
2019-03-29T06:05:38.857Z,1014.33
2019-03-29T06:06:38.845Z,1014.33
2019-03-29T06:07:38.855Z,1014.32
2019-03-29T06:08:38.823Z,1014.32
2019-03-29T06:09:38.812Z,1014.30
2019-03-29T06:10:49.069Z,1014.29
2019-03-29T06:11:39.789Z,1014.26
2019-03-29T06:12:38.801Z,1014.27
2019-03-29T06:13:38.767Z,1014.24
2019-03-29T06:14:38.757Z,1014.26
2019-03-29T06:15:38.745Z,1014.22
2019-03-29T06:16:39.534Z,1014.27
2019-03-29T06:17:48.370Z,1014.25
2019-03-29T06:18:39.710Z,1014.29
2019-03-29T06:19:38.708Z,1014.28
2019-03-29T06:20:38.689Z,1014.30
2019-03-29T06:21:38.679Z,1014.28
2019-03-29T06:22:38.692Z,1014.26
2019-03-29T06:23:38.656Z,1014.27
2019-03-29T06:24:38.645Z,1014.32
2019-03-29T06:25:38.636Z,1014.28
2019-03-29T06:26:38.622Z,1014.28
2019-03-29T06:27:38.632Z,1014.31
2019-03-29T06:28:38.600Z,1014.27
2019-03-29T06:29:38.589Z,1014.30
2019-03-29T06:30:38.577Z,1014.24
2019-03-29T06:31:38.568Z,1014.24
2019-03-29T06:32:38.577Z,1014.25
2019-03-29T06:33:38.545Z,1014.24
2019-03-29T06:34:38.534Z,1014.23
2019-03-29T06:35:38.527Z,1014.25
2019-03-29T06:36:38.511Z,1014.25
2019-03-29T06:37:38.526Z,1014.27
2019-03-29T06:38:38.512Z,1014.23
2019-03-29T06:39:38.477Z,1014.21
2019-03-29T06:40:38.465Z,1014.26
2019-03-29T06:41:38.455Z,1014.25
2019-03-29T06:42:38.443Z,1014.19
2019-03-29T06:43:38.454Z,1014.23
2019-03-29T06:44:38.422Z,1014.29
2019-03-29T06:45:47.710Z,1014.25
2019-03-29T06:46:39.401Z,1014.25
2019-03-29T06:47:38.388Z,1014.25
2019-03-29T06:48:38.396Z,1014.26
2019-03-29T06:49:38.365Z,1014.27
2019-03-29T06:50:38.423Z,1014.23
2019-03-29T06:51:38.363Z,1014.24
2019-03-29T06:52:38.330Z,1014.23
2019-03-29T06:53:38.343Z,1014.23
2019-03-29T06:54:38.315Z,1014.22
2019-03-29T06:55:38.297Z,1014.25
2019-03-29T06:56:38.365Z,1014.29
2019-03-29T06:57:38.275Z,1014.26
2019-03-29T06:58:38.341Z,1014.25
2019-03-29T06:59:38.253Z,1014.26
2019-03-29T07:00:38.247Z,1014.24
2019-03-29T07:01:38.232Z,1014.25
2019-03-29T07:02:38.224Z,1014.20
2019-03-29T07:03:38.229Z,1014.21
2019-03-29T07:04:38.196Z,1014.22
2019-03-29T07:05:38.278Z,1014.17
2019-03-29T07:06:38.173Z,1014.25
2019-03-29T07:07:38.162Z,1014.24
2019-03-29T07:08:38.173Z,1014.22
2019-03-29T07:09:38.161Z,1014.22
2019-03-29T07:10:38.129Z,1014.25
2019-03-29T07:11:39.611Z,1014.25
2019-03-29T07:12:38.107Z,1014.30
2019-03-29T07:13:38.117Z,1014.31
2019-03-29T07:14:38.098Z,1014.29
2019-03-29T07:15:38.072Z,1014.26
2019-03-29T07:16:38.082Z,1014.28
2019-03-29T07:17:38.054Z,1014.30
2019-03-29T07:18:38.063Z,1014.28
2019-03-29T07:19:38.486Z,1014.30
2019-03-29T07:20:38.018Z,1014.31
2019-03-29T07:21:38.007Z,1014.28
2019-03-29T07:22:37.993Z,1014.29
2019-03-29T07:23:38.016Z,1014.28
2019-03-29T07:24:37.969Z,1014.29
2019-03-29T07:25:37.962Z,1014.29
2019-03-29T07:26:37.955Z,1014.27
2019-03-29T07:27:44.815Z,1014.26
2019-03-29T07:28:38.961Z,1014.29
2019-03-29T07:29:37.921Z,1014.24
2019-03-29T07:30:37.906Z,1014.31
2019-03-29T07:31:37.890Z,1014.28
2019-03-29T07:32:37.879Z,1014.32
2019-03-29T07:33:37.873Z,1014.30
2019-03-29T07:34:37.878Z,1014.36
2019-03-29T07:35:37.846Z,1014.35
2019-03-29T07:36:37.835Z,1014.30
2019-03-29T07:37:37.825Z,1014.29
2019-03-29T07:38:37.839Z,1014.31
2019-03-29T07:39:37.822Z,1014.31
2019-03-29T07:40:37.794Z,1014.30
2019-03-29T07:41:37.807Z,1014.30
2019-03-29T07:42:37.768Z,1014.24
2019-03-29T07:43:37.762Z,1014.28
2019-03-29T07:44:37.777Z,1014.22
2019-03-29T07:45:37.730Z,1014.29
2019-03-29T07:46:37.722Z,1014.28
2019-03-29T07:47:37.709Z,1014.28
2019-03-29T07:48:40.278Z,1014.28
2019-03-29T07:49:37.741Z,1014.31
2019-03-29T07:50:37.678Z,1014.30
2019-03-29T07:51:37.671Z,1014.27
2019-03-29T07:52:37.652Z,1014.25
2019-03-29T07:53:37.699Z,1014.22
2019-03-29T07:54:37.654Z,1014.21
2019-03-29T07:55:37.726Z,1014.24
2019-03-29T07:56:37.614Z,1014.20
2019-03-29T07:57:37.596Z,1014.18
2019-03-29T07:58:37.586Z,1014.19
2019-03-29T07:59:37.617Z,1014.19
2019-03-29T08:00:37.563Z,1014.17
2019-03-29T08:01:37.551Z,1014.17
2019-03-29T08:02:37.542Z,1014.18
2019-03-29T08:03:37.528Z,1014.20
2019-03-29T08:04:37.539Z,1014.16
2019-03-29T08:05:37.506Z,1014.19
2019-03-29T08:06:38.359Z,1014.21
2019-03-29T08:07:37.485Z,1014.14
2019-03-29T08:08:37.474Z,1014.17
2019-03-29T08:09:37.483Z,1014.17
2019-03-29T08:10:37.452Z,1014.19
2019-03-29T08:11:46.227Z,1014.20
2019-03-29T08:12:40.511Z,1014.22
2019-03-29T08:13:37.417Z,1014.14
2019-03-29T08:14:37.430Z,1014.16
2019-03-29T08:15:37.396Z,1014.17
2019-03-29T08:16:37.385Z,1014.16
2019-03-29T08:17:37.374Z,1014.21
2019-03-29T08:18:37.405Z,1014.18
2019-03-29T08:19:37.542Z,1014.13
2019-03-29T08:20:41.987Z,1014.16
2019-03-29T08:21:38.325Z,1014.15
2019-03-29T08:22:37.317Z,1014.15
2019-03-29T08:23:37.307Z,1014.13
2019-03-29T08:24:37.330Z,1014.10
2019-03-29T08:25:37.288Z,1014.10
2019-03-29T08:26:37.271Z,1014.10
2019-03-29T08:27:37.261Z,1014.06
2019-03-29T08:28:37.249Z,1014.09
2019-03-29T08:29:37.238Z,1014.09
2019-03-29T08:30:37.250Z,1014.11
2019-03-29T08:31:37.216Z,1014.12
2019-03-29T08:32:37.213Z,1014.10
2019-03-29T08:33:37.196Z,1014.09
2019-03-29T08:34:37.184Z,1014.08
2019-03-29T08:35:37.194Z,1014.04
2019-03-29T08:36:37.164Z,1014.07
2019-03-29T08:37:37.152Z,1014.02
2019-03-29T08:38:37.139Z,1014.04
2019-03-29T08:39:37.126Z,1014.08
2019-03-29T08:40:37.233Z,1014.04
2019-03-29T08:41:37.105Z,1014.06
2019-03-29T08:42:37.095Z,1014.00
2019-03-29T08:43:37.087Z,1014.05
2019-03-29T08:44:37.093Z,1013.97
2019-03-29T08:45:37.093Z,1013.92
2019-03-29T08:46:37.048Z,1013.93
2019-03-29T08:47:37.038Z,1013.95
2019-03-29T08:48:37.059Z,1013.93
2019-03-29T08:49:37.028Z,1013.91
2019-03-29T08:50:37.029Z,1013.96
2019-03-29T08:51:36.993Z,1013.88
2019-03-29T08:52:37.696Z,1013.92
2019-03-29T08:53:36.970Z,1013.91
2019-03-29T08:54:36.959Z,1013.88
2019-03-29T08:55:45.620Z,1013.90
2019-03-29T08:56:37.935Z,1013.90
2019-03-29T08:57:36.925Z,1013.89
2019-03-29T08:58:36.914Z,1013.84
2019-03-29T08:59:36.903Z,1013.84
2019-03-29T09:00:36.914Z,1013.85
2019-03-29T09:01:36.898Z,1013.81
2019-03-29T09:02:36.885Z,1013.77
2019-03-29T09:03:36.859Z,1013.76
2019-03-29T09:04:36.855Z,1013.73
2019-03-29T09:05:39.169Z,1013.71
2019-03-29T09:06:36.824Z,1013.77
2019-03-29T09:07:44.682Z,1013.74
2019-03-29T09:08:37.801Z,1013.78
2019-03-29T09:09:36.790Z,1013.68
2019-03-29T09:10:36.802Z,1013.68
2019-03-29T09:11:38.899Z,1013.71
2019-03-29T09:12:36.757Z,1013.69
2019-03-29T09:13:36.753Z,1013.64
2019-03-29T09:14:36.735Z,1013.65
2019-03-29T09:15:36.744Z,1013.65
2019-03-29T09:16:36.713Z,1013.61
2019-03-29T09:17:36.702Z,1013.59
2019-03-29T09:18:36.699Z,1013.59
2019-03-29T09:19:36.696Z,1013.57
2019-03-29T09:20:36.796Z,1013.55
2019-03-29T09:21:36.697Z,1013.52
2019-03-29T09:22:36.646Z,1013.50
2019-03-29T09:23:36.899Z,1013.52
2019-03-29T09:24:36.709Z,1013.50
2019-03-29T09:25:40.179Z,1013.48
2019-03-29T09:26:36.663Z,1013.50
2019-03-29T09:27:36.592Z,1013.49
2019-03-29T09:28:36.579Z,1013.47
2019-03-29T09:29:36.570Z,1013.46
2019-03-29T09:30:36.556Z,1013.52
2019-03-29T09:31:36.564Z,1013.46
2019-03-29T09:32:36.534Z,1013.44
2019-03-29T09:33:36.522Z,1013.46
2019-03-29T09:34:36.546Z,1013.45
2019-03-29T09:35:36.507Z,1013.46
2019-03-29T09:36:36.512Z,1013.43
2019-03-29T09:37:36.480Z,1013.40
2019-03-29T09:38:36.466Z,1013.39
2019-03-29T09:39:36.454Z,1013.44
2019-03-29T09:40:36.443Z,1013.45
2019-03-29T09:41:36.475Z,1013.37
2019-03-29T09:42:36.421Z,1013.38
2019-03-29T09:43:36.410Z,1013.38
2019-03-29T09:44:36.398Z,1013.37
2019-03-29T09:45:36.388Z,1013.36
2019-03-29T09:46:36.396Z,1013.36
2019-03-29T09:47:40.385Z,1013.37
2019-03-29T09:48:36.355Z,1013.30
2019-03-29T09:49:36.342Z,1013.31
2019-03-29T09:50:36.331Z,1013.27
2019-03-29T09:51:36.342Z,1013.30
2019-03-29T09:52:36.309Z,1013.31
2019-03-29T09:53:36.298Z,1013.27
2019-03-29T09:54:36.328Z,1013.31
2019-03-29T09:55:36.296Z,1013.25
2019-03-29T09:56:39.131Z,1013.20
2019-03-29T09:57:37.667Z,1013.25
2019-03-29T09:58:36.243Z,1013.19
2019-03-29T09:59:36.232Z,1013.18
2019-03-29T10:00:36.225Z,1013.14
2019-03-29T10:01:36.283Z,1013.17
2019-03-29T10:02:36.200Z,1013.18
2019-03-29T10:03:36.187Z,1013.15
2019-03-29T10:04:36.175Z,1013.16
2019-03-29T10:05:36.165Z,1013.13
2019-03-29T10:06:36.174Z,1013.14
2019-03-29T10:07:36.141Z,1013.10
2019-03-29T10:08:36.131Z,1013.14
2019-03-29T10:09:36.119Z,1013.12
2019-03-29T10:10:36.109Z,1013.12
2019-03-29T10:11:36.118Z,1013.09
2019-03-29T10:12:43.444Z,1013.09
2019-03-29T10:13:37.076Z,1013.11
2019-03-29T10:14:36.089Z,1013.06
2019-03-29T10:15:36.055Z,1013.07
2019-03-29T10:16:36.061Z,1013.05
2019-03-29T10:17:36.030Z,1013.04
2019-03-29T10:18:36.033Z,1013.01
2019-03-29T10:19:36.007Z,1012.99
2019-03-29T10:20:35.997Z,1012.95
2019-03-29T10:21:36.022Z,1012.92
2019-03-29T10:22:35.974Z,1012.96
2019-03-29T10:23:36.033Z,1012.98
2019-03-29T10:24:35.954Z,1012.92
2019-03-29T10:25:35.945Z,1012.92
2019-03-29T10:26:35.932Z,1012.90
2019-03-29T10:27:35.962Z,1012.86
2019-03-29T10:28:35.911Z,1012.89
2019-03-29T10:29:35.897Z,1012.82
2019-03-29T10:30:35.884Z,1012.84
2019-03-29T10:31:35.873Z,1012.82
2019-03-29T10:32:35.891Z,1012.79
2019-03-29T10:33:35.851Z,1012.80
2019-03-29T10:34:37.531Z,1012.81
2019-03-29T10:35:50.172Z,1012.82
2019-03-29T10:36:36.827Z,1012.77
2019-03-29T10:37:35.828Z,1012.79
2019-03-29T10:38:36.483Z,1012.75
2019-03-29T10:39:36.072Z,1012.72
2019-03-29T10:40:35.775Z,1012.73
2019-03-29T10:41:38.145Z,1012.74
2019-03-29T10:42:35.773Z,1012.72
2019-03-29T10:43:35.752Z,1012.69
2019-03-29T10:44:35.728Z,1012.67
2019-03-29T10:45:39.914Z,1012.64
2019-03-29T10:46:35.708Z,1012.61
2019-03-29T10:47:43.553Z,1012.63
2019-03-29T10:48:36.682Z,1012.55
2019-03-29T10:49:35.672Z,1012.57
2019-03-29T10:50:35.662Z,1012.59
2019-03-29T10:51:35.651Z,1012.57
2019-03-29T10:52:35.741Z,1012.57
2019-03-29T10:53:35.628Z,1012.55
2019-03-29T10:54:35.618Z,1012.53
2019-03-29T10:55:35.605Z,1012.55
2019-03-29T10:56:35.594Z,1012.50
2019-03-29T10:57:35.610Z,1012.50
2019-03-29T10:58:35.572Z,1012.56
2019-03-29T10:59:35.561Z,1012.52
2019-03-29T11:00:35.550Z,1012.47
2019-03-29T11:01:35.538Z,1012.44
2019-03-29T11:02:35.547Z,1012.45
2019-03-29T11:03:35.516Z,1012.45
2019-03-29T11:04:35.504Z,1012.44
2019-03-29T11:05:35.493Z,1012.41
2019-03-29T11:06:35.482Z,1012.37
2019-03-29T11:07:35.492Z,1012.39
2019-03-29T11:08:35.465Z,1012.35
2019-03-29T11:09:37.050Z,1012.35
2019-03-29T11:10:35.438Z,1012.35
2019-03-29T11:11:35.426Z,1012.28
2019-03-29T11:12:35.436Z,1012.35
2019-03-29T11:13:35.404Z,1012.28
2019-03-29T11:14:35.393Z,1012.31
2019-03-29T11:15:35.384Z,1012.32
2019-03-29T11:16:35.394Z,1012.31
2019-03-29T11:17:35.380Z,1012.31
2019-03-29T11:18:35.349Z,1012.24
2019-03-29T11:19:35.341Z,1012.24
2019-03-29T11:20:35.328Z,1012.20
2019-03-29T11:21:35.318Z,1012.16
2019-03-29T11:22:35.324Z,1012.18
2019-03-29T11:23:35.294Z,1012.16
2019-03-29T11:24:35.281Z,1012.12
2019-03-29T11:25:35.270Z,1012.14
2019-03-29T11:26:35.259Z,1012.12
2019-03-29T11:27:35.283Z,1012.08
2019-03-29T11:28:35.236Z,1012.09
2019-03-29T11:29:35.226Z,1012.07
2019-03-29T11:30:41.996Z,1012.05
2019-03-29T11:31:36.201Z,1012.06
2019-03-29T11:32:35.192Z,1012.02
2019-03-29T11:33:35.201Z,1012.03
2019-03-29T11:34:35.172Z,1012.04
2019-03-29T11:35:35.158Z,1012.03
2019-03-29T11:36:35.146Z,1012.01
2019-03-29T11:37:35.136Z,1011.98
2019-03-29T11:38:35.172Z,1011.98
2019-03-29T11:39:35.113Z,1011.96
2019-03-29T11:40:35.102Z,1011.94
2019-03-29T11:41:35.092Z,1011.89
2019-03-29T11:42:35.079Z,1011.89
2019-03-29T11:43:35.088Z,1011.90
2019-03-29T11:44:35.057Z,1011.90
2019-03-29T11:45:35.045Z,1011.85
2019-03-29T11:46:35.034Z,1011.86
2019-03-29T11:47:35.024Z,1011.84
2019-03-29T11:48:35.034Z,1011.84
2019-03-29T11:49:35.001Z,1011.85
2019-03-29T11:50:34.992Z,1011.85
2019-03-29T11:51:34.978Z,1011.87
2019-03-29T11:52:34.980Z,1011.87
2019-03-29T11:53:34.977Z,1011.84
2019-03-29T11:54:34.948Z,1011.82
2019-03-29T11:55:34.934Z,1011.70
2019-03-29T11:56:34.924Z,1011.70
2019-03-29T11:57:34.913Z,1011.78
2019-03-29T11:58:34.926Z,1011.76
2019-03-29T11:59:34.891Z,1011.71
2019-03-29T12:00:34.883Z,1011.73
2019-03-29T12:01:34.866Z,1011.70
2019-03-29T12:02:34.856Z,1011.70
2019-03-29T12:03:34.874Z,1011.63
2019-03-29T12:04:34.833Z,1011.68
2019-03-29T12:05:36.351Z,1011.67